sensor_id;sensor_type;location;lat;lon;timestamp;pressure;altitude;pressure_sealevel;temperature;humidity
22283;BME280;11310;51.528;21.204;2022-10-17T00:01:17;100910.13;;;12.27;100.00
22283;BME280;11310;51.528;21.204;2022-10-17T00:03:47;100910.31;;;12.22;100.00
22283;BME280;11310;51.528;21.204;2022-10-17T00:06:17;100912.00;;;12.23;100.00
22283;BME280;11310;51.528;21.204;2022-10-17T00:08:45;100911.16;;;12.23;100.00
22283;BME280;11310;51.528;21.204;2022-10-17T00:11:16;100920.88;;;12.21;100.00
22283;BME280;11310;51.528;21.204;2022-10-17T00:13:46;100924.56;;;12.17;100.00
22283;BME280;11310;51.528;21.204;2022-10-17T00:16:22;100933.59;;;12.10;100.00
22283;BME280;11310;51.528;21.204;2022-10-17T00:18:53;100930.22;;;12.06;100.00
22283;BME280;11310;51.528;21.204;2022-10-17T00:21:24;100928.50;;;12.05;100.00
22283;BME280;11310;51.528;21.204;2022-10-17T00:23:53;100930.28;;;12.05;100.00
22283;BME280;11310;51.528;21.204;2022-10-17T00:26:22;100927.81;;;12.00;100.00
22283;BME280;11310;51.528;21.204;2022-10-17T00:28:51;100931.31;;;12.01;100.00
22283;BME280;11310;51.528;21.204;2022-10-17T00:31:21;100926.84;;;12.02;100.00
22283;BME280;11310;51.528;21.204;2022-10-17T00:33:51;100936.28;;;12.08;100.00
22283;BME280;11310;51.528;21.204;2022-10-17T00:36:23;100944.84;;;12.13;100.00
22283;BME280;11310;51.528;21.204;2022-10-17T00:38:52;100949.09;;;12.17;100.00
22283;BME280;11310;51.528;21.204;2022-10-17T00:41:23;100946.28;;;12.22;100.00
22283;BME280;11310;51.528;21.204;2022-10-17T00:43:55;100953.94;;;12.28;100.00
22283;BME280;11310;51.528;21.204;2022-10-17T00:46:25;100946.00;;;12.29;100.00
22283;BME280;11310;51.528;21.204;2022-10-17T00:48:56;100934.59;;;12.29;100.00
22283;BME280;11310;51.528;21.204;2022-10-17T00:51:31;100937.97;;;12.32;100.00
22283;BME280;11310;51.528;21.204;2022-10-17T00:54:02;100936.25;;;12.31;100.00
22283;BME280;11310;51.528;21.204;2022-10-17T00:56:31;100920.81;;;12.22;100.00
22283;BME280;11310;51.528;21.204;2022-10-17T00:59:00;100924.31;;;12.23;100.00
22283;BME280;11310;51.528;21.204;2022-10-17T01:01:30;100926.28;;;12.18;100.00
22283;BME280;11310;51.528;21.204;2022-10-17T01:03:59;100927.25;;;12.15;100.00
22283;BME280;11310;51.528;21.204;2022-10-17T01:06:50;100929.06;;;12.13;100.00
22283;BME280;11310;51.528;21.204;2022-10-17T01:09:19;100925.66;;;12.11;100.00
22283;BME280;11310;51.528;21.204;2022-10-17T01:11:51;100922.19;;;12.09;100.00
22283;BME280;11310;51.528;21.204;2022-10-17T01:14:30;100934.31;;;12.13;100.00
22283;BME280;11310;51.528;21.204;2022-10-17T01:17:06;100945.63;;;12.17;100.00
22283;BME280;11310;51.528;21.204;2022-10-17T01:19:58;100948.16;;;12.18;100.00
22283;BME280;11310;51.528;21.204;2022-10-17T01:22:39;100941.38;;;12.13;100.00
22283;BME280;11310;51.528;21.204;2022-10-17T01:25:28;100932.72;;;12.09;100.00
22283;BME280;11310;51.528;21.204;2022-10-17T01:28:21;100949.44;;;12.08;100.00
22283;BME280;11310;51.528;21.204;2022-10-17T01:31:03;100947.88;;;12.02;100.00
22283;BME280;11310;51.528;21.204;2022-10-17T01:33:50;100949.75;;;11.99;100.00
22283;BME280;11310;51.528;21.204;2022-10-17T01:36:33;100948.16;;;11.95;100.00
22283;BME280;11310;51.528;21.204;2022-10-17T01:39:05;100942.06;;;11.95;100.00
22283;BME280;11310;51.528;21.204;2022-10-17T01:41:41;100935.00;;;11.95;100.00
22283;BME280;11310;51.528;21.204;2022-10-17T01:44:14;100947.28;;;11.96;100.00
22283;BME280;11310;51.528;21.204;2022-10-17T01:46:48;100944.41;;;12.02;100.00
22283;BME280;11310;51.528;21.204;2022-10-17T01:49:22;100943.38;;;12.06;100.00
22283;BME280;11310;51.528;21.204;2022-10-17T01:51:56;100950.25;;;12.10;100.00
22283;BME280;11310;51.528;21.204;2022-10-17T01:54:30;100955.31;;;12.15;100.00
22283;BME280;11310;51.528;21.204;2022-10-17T01:57:04;100952.63;;;12.16;100.00
22283;BME280;11310;51.528;21.204;2022-10-17T01:59:38;100951.72;;;12.17;100.00
22283;BME280;11310;51.528;21.204;2022-10-17T02:02:13;100943.88;;;12.16;100.00
22283;BME280;11310;51.528;21.204;2022-10-17T02:04:42;100939.59;;;12.13;100.00
22283;BME280;11310;51.528;21.204;2022-10-17T02:07:12;100936.28;;;12.08;100.00
22283;BME280;11310;51.528;21.204;2022-10-17T02:09:40;100941.63;;;12.05;100.00
22283;BME280;11310;51.528;21.204;2022-10-17T02:15:12;100954.00;;;12.03;100.00
22283;BME280;11310;51.528;21.204;2022-10-17T02:17:51;100942.63;;;12.02;100.00
22283;BME280;11310;51.528;21.204;2022-10-17T02:20:24;100945.19;;;12.04;100.00
22283;BME280;11310;51.528;21.204;2022-10-17T02:23:01;100947.88;;;12.02;100.00
22283;BME280;11310;51.528;21.204;2022-10-17T02:25:35;100954.09;;;12.00;100.00
22283;BME280;11310;51.528;21.204;2022-10-17T02:28:15;100955.22;;;11.95;100.00
22283;BME280;11310;51.528;21.204;2022-10-17T02:30:52;100949.41;;;11.85;100.00
22283;BME280;11310;51.528;21.204;2022-10-17T02:33:28;100961.13;;;11.77;100.00
22283;BME280;11310;51.528;21.204;2022-10-17T02:36:01;100954.31;;;11.71;100.00
22283;BME280;11310;51.528;21.204;2022-10-17T02:38:32;100957.81;;;11.72;100.00
22283;BME280;11310;51.528;21.204;2022-10-17T02:41:03;100947.31;;;11.72;100.00
22283;BME280;11310;51.528;21.204;2022-10-17T02:43:34;100948.13;;;11.72;100.00
22283;BME280;11310;51.528;21.204;2022-10-17T02:46:04;100949.06;;;11.71;100.00
22283;BME280;11310;51.528;21.204;2022-10-17T02:48:39;100949.84;;;11.73;100.00
22283;BME280;11310;51.528;21.204;2022-10-17T02:51:14;100953.41;;;11.72;100.00
22283;BME280;11310;51.528;21.204;2022-10-17T02:53:52;100952.59;;;11.70;100.00
22283;BME280;11310;51.528;21.204;2022-10-17T02:56:24;100953.56;;;11.68;100.00
22283;BME280;11310;51.528;21.204;2022-10-17T02:58:57;100949.16;;;11.68;100.00
22283;BME280;11310;51.528;21.204;2022-10-17T03:01:28;100955.47;;;11.64;100.00
22283;BME280;11310;51.528;21.204;2022-10-17T03:04:07;100957.34;;;11.59;100.00
22283;BME280;11310;51.528;21.204;2022-10-17T03:06:38;100963.63;;;11.55;100.00
22283;BME280;11310;51.528;21.204;2022-10-17T03:09:08;100961.19;;;11.49;100.00
22283;BME280;11310;51.528;21.204;2022-10-17T03:11:36;100971.84;;;11.46;100.00
22283;BME280;11310;51.528;21.204;2022-10-17T03:14:07;100976.38;;;11.41;100.00
22283;BME280;11310;51.528;21.204;2022-10-17T03:16:35;100986.19;;;11.36;100.00
22283;BME280;11310;51.528;21.204;2022-10-17T03:19:06;100982.75;;;11.34;100.00
22283;BME280;11310;51.528;21.204;2022-10-17T03:21:35;100980.09;;;11.35;100.00
22283;BME280;11310;51.528;21.204;2022-10-17T03:24:06;100978.28;;;11.36;100.00
22283;BME280;11310;51.528;21.204;2022-10-17T03:26:35;100978.47;;;11.31;100.00
22283;BME280;11310;51.528;21.204;2022-10-17T03:29:04;100983.72;;;11.31;100.00
22283;BME280;11310;51.528;21.204;2022-10-17T03:31:35;100988.00;;;11.34;100.00
22283;BME280;11310;51.528;21.204;2022-10-17T03:34:07;100983.69;;;11.33;100.00
22283;BME280;11310;51.528;21.204;2022-10-17T03:36:35;100982.84;;;11.31;100.00
22283;BME280;11310;51.528;21.204;2022-10-17T03:39:05;100989.84;;;11.32;100.00
22283;BME280;11310;51.528;21.204;2022-10-17T03:41:34;100993.41;;;11.29;100.00
22283;BME280;11310;51.528;21.204;2022-10-17T03:44:03;101003.88;;;11.31;100.00
22283;BME280;11310;51.528;21.204;2022-10-17T03:46:32;101006.53;;;11.29;100.00
22283;BME280;11310;51.528;21.204;2022-10-17T03:49:03;101007.63;;;11.24;100.00
22283;BME280;11310;51.528;21.204;2022-10-17T03:51:35;101011.25;;;11.20;100.00
22283;BME280;11310;51.528;21.204;2022-10-17T03:54:11;101028.72;;;11.21;100.00
22283;BME280;11310;51.528;21.204;2022-10-17T03:56:39;101027.88;;;11.20;100.00
22283;BME280;11310;51.528;21.204;2022-10-17T03:59:12;101028.75;;;11.19;100.00
22283;BME280;11310;51.528;21.204;2022-10-17T04:01:47;101026.09;;;11.21;100.00
22283;BME280;11310;51.528;21.204;2022-10-17T04:04:17;101039.16;;;11.24;100.00
22283;BME280;11310;51.528;21.204;2022-10-17T04:06:47;101031.13;;;11.27;100.00
22283;BME280;11310;51.528;21.204;2022-10-17T04:09:15;101037.19;;;11.30;100.00
22283;BME280;11310;51.528;21.204;2022-10-17T04:12:08;101040.56;;;11.34;100.00
22283;BME280;11310;51.528;21.204;2022-10-17T04:14:37;101040.47;;;11.37;100.00
22283;BME280;11310;51.528;21.204;2022-10-17T04:17:07;101044.84;;;11.36;100.00
22283;BME280;11310;51.528;21.204;2022-10-17T04:19:38;101051.06;;;11.34;100.00
22283;BME280;11310;51.528;21.204;2022-10-17T04:22:09;101045.91;;;11.31;100.00
22283;BME280;11310;51.528;21.204;2022-10-17T04:24:38;101050.34;;;11.29;100.00
22283;BME280;11310;51.528;21.204;2022-10-17T04:27:19;101053.19;;;11.23;100.00
22283;BME280;11310;51.528;21.204;2022-10-17T04:29:48;101046.34;;;11.17;100.00
22283;BME280;11310;51.528;21.204;2022-10-17T04:32:22;101049.19;;;11.11;100.00
22283;BME280;11310;51.528;21.204;2022-10-17T04:35:15;101051.94;;;11.07;100.00
22283;BME280;11310;51.528;21.204;2022-10-17T04:37:50;101064.38;;;11.02;100.00
22283;BME280;11310;51.528;21.204;2022-10-17T04:40:20;101059.31;;;10.96;100.00
22283;BME280;11310;51.528;21.204;2022-10-17T04:42:51;101056.06;;;10.88;100.00
22283;BME280;11310;51.528;21.204;2022-10-17T04:45:26;101044.00;;;10.81;100.00
22283;BME280;11310;51.528;21.204;2022-10-17T04:48:01;101047.63;;;10.77;100.00
22283;BME280;11310;51.528;21.204;2022-10-17T04:50:29;101043.28;;;10.76;100.00
22283;BME280;11310;51.528;21.204;2022-10-17T04:53:27;101046.84;;;10.75;100.00
22283;BME280;11310;51.528;21.204;2022-10-17T04:55:56;101046.91;;;10.72;100.00
22283;BME280;11310;51.528;21.204;2022-10-17T04:58:26;101040.00;;;10.69;100.00
22283;BME280;11310;51.528;21.204;2022-10-17T05:00:56;101041.81;;;10.67;100.00
22283;BME280;11310;51.528;21.204;2022-10-17T05:03:28;101051.56;;;10.64;100.00
22283;BME280;11310;51.528;21.204;2022-10-17T05:06:03;101048.28;;;10.56;100.00
22283;BME280;11310;51.528;21.204;2022-10-17T05:08:33;101053.63;;;10.53;100.00
22283;BME280;11310;51.528;21.204;2022-10-17T05:11:03;101049.31;;;10.50;100.00
22283;BME280;11310;51.528;21.204;2022-10-17T05:13:34;101058.16;;;10.48;100.00
22283;BME280;11310;51.528;21.204;2022-10-17T05:16:04;101063.47;;;10.45;100.00
22283;BME280;11310;51.528;21.204;2022-10-17T05:18:34;101063.53;;;10.43;100.00
22283;BME280;11310;51.528;21.204;2022-10-17T05:21:04;101063.66;;;10.39;100.00
22283;BME280;11310;51.528;21.204;2022-10-17T05:23:36;101067.16;;;10.39;100.00
22283;BME280;11310;51.528;21.204;2022-10-17T05:26:06;101068.88;;;10.40;100.00
22283;BME280;11310;51.528;21.204;2022-10-17T05:28:35;101078.41;;;10.43;100.00
22283;BME280;11310;51.528;21.204;2022-10-17T05:31:06;101073.16;;;10.43;100.00
22283;BME280;11310;51.528;21.204;2022-10-17T05:33:37;101082.66;;;10.47;100.00
22283;BME280;11310;51.528;21.204;2022-10-17T05:36:06;101087.84;;;10.50;100.00
22283;BME280;11310;51.528;21.204;2022-10-17T05:38:37;101084.25;;;10.52;100.00
22283;BME280;11310;51.528;21.204;2022-10-17T05:41:06;101090.19;;;10.59;100.00
22283;BME280;11310;51.528;21.204;2022-10-17T05:43:35;101089.28;;;10.60;100.00
22283;BME280;11310;51.528;21.204;2022-10-17T05:46:05;101096.25;;;10.61;100.00
22283;BME280;11310;51.528;21.204;2022-10-17T05:48:35;101093.53;;;10.64;100.00
22283;BME280;11310;51.528;21.204;2022-10-17T05:51:07;101097.81;;;10.68;100.00
22283;BME280;11310;51.528;21.204;2022-10-17T05:53:39;101095.94;;;10.71;100.00
22283;BME280;11310;51.528;21.204;2022-10-17T05:56:14;101107.19;;;10.75;100.00
22283;BME280;11310;51.528;21.204;2022-10-17T05:58:43;101111.47;;;10.79;100.00
22283;BME280;11310;51.528;21.204;2022-10-17T06:01:40;101108.75;;;10.82;100.00
22283;BME280;11310;51.528;21.204;2022-10-17T06:04:08;101120.84;;;10.86;100.00
22283;BME280;11310;51.528;21.204;2022-10-17T06:06:38;101125.94;;;10.92;100.00
22283;BME280;11310;51.528;21.204;2022-10-17T06:09:09;101131.09;;;10.95;100.00
22283;BME280;11310;51.528;21.204;2022-10-17T06:11:42;101132.63;;;11.02;100.00
22283;BME280;11310;51.528;21.204;2022-10-17T06:14:11;101136.78;;;11.09;100.00
22283;BME280;11310;51.528;21.204;2022-10-17T06:16:41;101148.88;;;11.14;100.00
22283;BME280;11310;51.528;21.204;2022-10-17T06:19:10;101142.59;;;11.20;100.00
22283;BME280;11310;51.528;21.204;2022-10-17T06:21:39;101156.28;;;11.29;100.00
22283;BME280;11310;51.528;21.204;2022-10-17T06:24:13;101149.06;;;11.36;100.00
22283;BME280;11310;51.528;21.204;2022-10-17T06:26:43;101159.28;;;11.45;100.00
22283;BME280;11310;51.528;21.204;2022-10-17T06:29:14;101164.38;;;11.51;100.00
22283;BME280;11310;51.528;21.204;2022-10-17T06:31:50;101168.50;;;11.58;100.00
22283;BME280;11310;51.528;21.204;2022-10-17T06:34:19;101174.34;;;11.69;100.00
22283;BME280;11310;51.528;21.204;2022-10-17T06:36:48;101172.19;;;11.80;100.00
22283;BME280;11310;51.528;21.204;2022-10-17T06:39:20;101176.28;;;11.88;100.00
22283;BME280;11310;51.528;21.204;2022-10-17T06:42:02;101174.19;;;12.00;100.00
22283;BME280;11310;51.528;21.204;2022-10-17T06:44:51;101175.41;;;12.14;100.00
22283;BME280;11310;51.528;21.204;2022-10-17T06:47:50;101164.63;;;12.46;100.00
22283;BME280;11310;51.528;21.204;2022-10-17T06:50:41;101160.34;;;12.44;100.00
22283;BME280;11310;51.528;21.204;2022-10-17T06:53:14;101170.81;;;12.45;100.00
22283;BME280;11310;51.528;21.204;2022-10-17T06:55:52;101175.88;;;12.51;100.00
22283;BME280;11310;51.528;21.204;2022-10-17T06:58:47;101189.50;;;12.62;100.00
22283;BME280;11310;51.528;21.204;2022-10-17T07:01:34;101193.63;;;12.69;100.00
22283;BME280;11310;51.528;21.204;2022-10-17T07:04:04;101191.50;;;12.80;100.00
22283;BME280;11310;51.528;21.204;2022-10-17T07:06:34;101192.06;;;12.88;100.00
22283;BME280;11310;51.528;21.204;2022-10-17T07:09:14;101186.50;;;12.97;100.00
22283;BME280;11310;51.528;21.204;2022-10-17T07:11:45;101195.88;;;13.04;100.00
22283;BME280;11310;51.528;21.204;2022-10-17T07:14:17;101193.81;;;13.12;100.00
22283;BME280;11310;51.528;21.204;2022-10-17T07:16:54;101196.09;;;13.21;100.00
22283;BME280;11310;51.528;21.204;2022-10-17T07:19:25;101200.22;;;13.28;100.00
22283;BME280;11310;51.528;21.204;2022-10-17T07:21:54;101208.53;;;13.41;100.00
22283;BME280;11310;51.528;21.204;2022-10-17T07:24:24;101203.75;;;13.50;100.00
22283;BME280;11310;51.528;21.204;2022-10-17T07:27:01;101200.75;;;13.59;100.00
22283;BME280;11310;51.528;21.204;2022-10-17T07:29:31;101210.63;;;13.76;100.00
22283;BME280;11310;51.528;21.204;2022-10-17T07:32:09;101222.59;;;13.84;100.00
22283;BME280;11310;51.528;21.204;2022-10-17T07:34:38;101213.25;;;13.97;100.00
22283;BME280;11310;51.528;21.204;2022-10-17T07:37:08;101214.59;;;14.07;100.00
22283;BME280;11310;51.528;21.204;2022-10-17T07:39:41;101219.63;;;14.13;100.00
22283;BME280;11310;51.528;21.204;2022-10-17T07:42:11;101224.63;;;14.19;100.00
22283;BME280;11310;51.528;21.204;2022-10-17T07:44:43;101225.88;;;14.32;100.00
22283;BME280;11310;51.528;21.204;2022-10-17T07:47:14;101224.31;;;14.48;100.00
22283;BME280;11310;51.528;21.204;2022-10-17T07:49:44;101229.13;;;14.59;100.00
22283;BME280;11310;51.528;21.204;2022-10-17T07:52:14;101222.59;;;14.67;100.00
22283;BME280;11310;51.528;21.204;2022-10-17T07:54:43;101223.84;;;14.79;100.00
22283;BME280;11310;51.528;21.204;2022-10-17T07:57:13;101218.28;;;14.85;100.00
22283;BME280;11310;51.528;21.204;2022-10-17T07:59:42;101223.72;;;15.00;100.00
22283;BME280;11310;51.528;21.204;2022-10-17T08:02:16;101220.13;;;15.21;100.00
22283;BME280;11310;51.528;21.204;2022-10-17T08:04:48;101218.16;;;15.45;100.00
22283;BME280;11310;51.528;21.204;2022-10-17T08:07:23;101210.53;;;15.74;100.00
22283;BME280;11310;51.528;21.204;2022-10-17T08:09:55;101205.75;;;16.52;100.00
22283;BME280;11310;51.528;21.204;2022-10-17T08:12:26;101214.19;;;17.25;100.00
22283;BME280;11310;51.528;21.204;2022-10-17T08:14:59;101215.88;;;18.78;98.84
22283;BME280;11310;51.528;21.204;2022-10-17T08:17:28;101219.47;;;20.01;91.12
22283;BME280;11310;51.528;21.204;2022-10-17T08:19:57;101218.88;;;20.49;88.11
22283;BME280;11310;51.528;21.204;2022-10-17T08:22:28;101222.56;;;20.34;89.26
22283;BME280;11310;51.528;21.204;2022-10-17T08:24:57;101219.56;;;20.00;92.07
22283;BME280;11310;51.528;21.204;2022-10-17T08:27:29;101223.22;;;19.85;94.60
22283;BME280;11310;51.528;21.204;2022-10-17T08:29:57;101227.03;;;19.81;95.67
22283;BME280;11310;51.528;21.204;2022-10-17T08:32:27;101221.75;;;19.93;95.05
22283;BME280;11310;51.528;21.204;2022-10-17T08:34:56;101223.84;;;20.02;94.11
22283;BME280;11310;51.528;21.204;2022-10-17T08:37:27;101228.63;;;20.24;93.33
22283;BME280;11310;51.528;21.204;2022-10-17T08:39:58;101221.78;;;20.71;90.68
22283;BME280;11310;51.528;21.204;2022-10-17T08:42:44;101220.16;;;21.57;85.33
22283;BME280;11310;51.528;21.204;2022-10-17T08:45:24;101230.91;;;22.62;80.74
22283;BME280;11310;51.528;21.204;2022-10-17T08:47:57;101235.47;;;23.40;76.21
22283;BME280;11310;51.528;21.204;2022-10-17T08:50:35;101234.28;;;23.86;73.27
22283;BME280;11310;51.528;21.204;2022-10-17T08:53:12;101234.63;;;24.35;71.03
22283;BME280;11310;51.528;21.204;2022-10-17T08:55:45;101229.78;;;24.61;70.92
22283;BME280;11310;51.528;21.204;2022-10-17T08:58:20;101228.41;;;24.87;69.12
22283;BME280;11310;51.528;21.204;2022-10-17T09:00:56;101243.44;;;24.99;68.60
22283;BME280;11310;51.528;21.204;2022-10-17T09:03:59;101233.06;;;24.64;64.29
22283;BME280;11310;51.528;21.204;2022-10-17T09:06:34;101229.88;;;23.96;72.15
22283;BME280;11310;51.528;21.204;2022-10-17T09:09:14;101236.88;;;23.66;74.16
22283;BME280;11310;51.528;21.204;2022-10-17T09:11:55;101235.78;;;23.79;71.69
22283;BME280;11310;51.528;21.204;2022-10-17T09:14:49;101233.78;;;24.35;69.91
22283;BME280;11310;51.528;21.204;2022-10-17T09:17:32;101233.69;;;24.98;69.26
22283;BME280;11310;51.528;21.204;2022-10-17T09:20:07;101243.00;;;25.84;65.96
22283;BME280;11310;51.528;21.204;2022-10-17T09:22:40;101238.00;;;26.19;63.75
22283;BME280;11310;51.528;21.204;2022-10-17T09:25:15;101243.66;;;26.35;61.38
22283;BME280;11310;51.528;21.204;2022-10-17T09:27:47;101248.09;;;26.74;59.79
22283;BME280;11310;51.528;21.204;2022-10-17T09:30:33;101239.59;;;27.34;55.14
22283;BME280;11310;51.528;21.204;2022-10-17T09:33:14;101244.25;;;27.68;56.37
22283;BME280;11310;51.528;21.204;2022-10-17T09:36:02;101240.69;;;27.95;56.12
22283;BME280;11310;51.528;21.204;2022-10-17T09:38:38;101240.94;;;27.84;53.51
22283;BME280;11310;51.528;21.204;2022-10-17T09:41:14;101243.91;;;27.81;53.84
22283;BME280;11310;51.528;21.204;2022-10-17T09:44:17;101234.22;;;27.88;52.74
22283;BME280;11310;51.528;21.204;2022-10-17T09:47:04;101236.94;;;27.78;52.99
22283;BME280;11310;51.528;21.204;2022-10-17T09:49:43;101242.88;;;28.09;55.01
22283;BME280;11310;51.528;21.204;2022-10-17T09:52:16;101237.81;;;28.41;54.61
22283;BME280;11310;51.528;21.204;2022-10-17T09:54:48;101239.69;;;28.41;53.39
22283;BME280;11310;51.528;21.204;2022-10-17T09:57:18;101238.78;;;28.05;55.41
22283;BME280;11310;51.528;21.204;2022-10-17T10:00:00;101237.56;;;27.72;53.88
22283;BME280;11310;51.528;21.204;2022-10-17T10:02:43;101246.56;;;27.54;56.50
22283;BME280;11310;51.528;21.204;2022-10-17T10:05:15;101242.84;;;27.28;57.97
22283;BME280;11310;51.528;21.204;2022-10-17T10:08:01;101225.84;;;27.18;55.57
22283;BME280;11310;51.528;21.204;2022-10-17T10:10:31;101241.06;;;27.09;60.51
22283;BME280;11310;51.528;21.204;2022-10-17T10:13:05;101224.84;;;27.19;58.98
22283;BME280;11310;51.528;21.204;2022-10-17T10:15:36;101228.16;;;27.03;59.97
22283;BME280;11310;51.528;21.204;2022-10-17T10:18:47;101229.94;;;27.31;55.23
22283;BME280;11310;51.528;21.204;2022-10-17T10:21:35;101229.59;;;27.44;55.50
22283;BME280;11310;51.528;21.204;2022-10-17T10:24:27;101229.00;;;27.77;56.69
22283;BME280;11310;51.528;21.204;2022-10-17T10:27:01;101222.69;;;28.13;53.87
22283;BME280;11310;51.528;21.204;2022-10-17T10:29:34;101222.16;;;28.62;52.67
22283;BME280;11310;51.528;21.204;2022-10-17T10:32:10;101223.69;;;29.41;48.90
22283;BME280;11310;51.528;21.204;2022-10-17T10:34:47;101222.31;;;30.28;46.34
22283;BME280;11310;51.528;21.204;2022-10-17T10:37:18;101228.72;;;31.07;45.47
22283;BME280;11310;51.528;21.204;2022-10-17T10:39:50;101216.44;;;31.90;44.09
22283;BME280;11310;51.528;21.204;2022-10-17T10:42:21;101218.75;;;32.23;40.29
22283;BME280;11310;51.528;21.204;2022-10-17T10:44:53;101219.41;;;32.70;42.62
22283;BME280;11310;51.528;21.204;2022-10-17T10:47:27;101213.41;;;33.26;40.86
22283;BME280;11310;51.528;21.204;2022-10-17T10:50:25;101213.81;;;33.67;36.92
22283;BME280;11310;51.528;21.204;2022-10-17T10:53:22;101210.31;;;33.73;36.40
22283;BME280;11310;51.528;21.204;2022-10-17T10:56:11;101215.88;;;34.00;37.89
22283;BME280;11310;51.528;21.204;2022-10-17T10:58:53;101203.06;;;34.15;36.23
22283;BME280;11310;51.528;21.204;2022-10-17T11:01:28;101205.09;;;34.28;37.87
22283;BME280;11310;51.528;21.204;2022-10-17T11:04:11;101201.53;;;34.48;36.39
22283;BME280;11310;51.528;21.204;2022-10-17T11:06:44;101196.59;;;34.79;37.85
22283;BME280;11310;51.528;21.204;2022-10-17T11:09:25;101193.31;;;35.24;33.86
22283;BME280;11310;51.528;21.204;2022-10-17T11:12:04;101196.34;;;35.36;34.49
22283;BME280;11310;51.528;21.204;2022-10-17T11:14:43;101184.06;;;35.25;34.83
22283;BME280;11310;51.528;21.204;2022-10-17T11:17:18;101182.16;;;35.60;34.46
22283;BME280;11310;51.528;21.204;2022-10-17T11:19:58;101190.28;;;35.88;33.03
22283;BME280;11310;51.528;21.204;2022-10-17T11:22:31;101182.09;;;36.01;33.13
22283;BME280;11310;51.528;21.204;2022-10-17T11:25:05;101176.06;;;36.25;33.65
22283;BME280;11310;51.528;21.204;2022-10-17T11:27:40;101179.03;;;36.43;33.58
22283;BME280;11310;51.528;21.204;2022-10-17T11:30:12;101171.88;;;36.42;32.88
22283;BME280;11310;51.528;21.204;2022-10-17T11:32:43;101166.84;;;36.52;33.35
22283;BME280;11310;51.528;21.204;2022-10-17T11:35:18;101163.63;;;36.16;32.30
22283;BME280;11310;51.528;21.204;2022-10-17T11:37:54;101166.56;;;36.01;32.58
22283;BME280;11310;51.528;21.204;2022-10-17T11:40:28;101152.13;;;36.27;33.69
22283;BME280;11310;51.528;21.204;2022-10-17T11:42:59;101154.66;;;36.35;34.64
22283;BME280;11310;51.528;21.204;2022-10-17T11:45:34;101157.19;;;36.30;33.05
22283;BME280;11310;51.528;21.204;2022-10-17T11:48:08;101158.00;;;36.63;33.94
22283;BME280;11310;51.528;21.204;2022-10-17T11:50:44;101155.88;;;36.65;32.02
22283;BME280;11310;51.528;21.204;2022-10-17T11:53:44;101152.97;;;36.73;31.36
22283;BME280;11310;51.528;21.204;2022-10-17T11:56:17;101138.22;;;36.74;33.27
22283;BME280;11310;51.528;21.204;2022-10-17T11:58:53;101147.06;;;36.50;31.84
22283;BME280;11310;51.528;21.204;2022-10-17T12:01:31;101138.84;;;36.24;30.10
22283;BME280;11310;51.528;21.204;2022-10-17T12:04:23;101146.97;;;35.85;30.61
22283;BME280;11310;51.528;21.204;2022-10-17T12:07:04;101139.41;;;35.93;31.69
22283;BME280;11310;51.528;21.204;2022-10-17T12:09:42;101142.44;;;36.24;32.01
22283;BME280;11310;51.528;21.204;2022-10-17T12:12:23;101141.19;;;36.27;31.02
22283;BME280;11310;51.528;21.204;2022-10-17T12:15:26;101140.75;;;36.43;30.46
22283;BME280;11310;51.528;21.204;2022-10-17T12:17:56;101139.47;;;36.45;33.22
22283;BME280;11310;51.528;21.204;2022-10-17T12:20:32;101129.78;;;36.36;33.04
22283;BME280;11310;51.528;21.204;2022-10-17T12:23:23;101135.25;;;36.17;30.79
22283;BME280;11310;51.528;21.204;2022-10-17T12:25:56;101134.59;;;36.02;32.78
22283;BME280;11310;51.528;21.204;2022-10-17T12:28:32;101132.59;;;35.22;34.30
22283;BME280;11310;51.528;21.204;2022-10-17T12:31:04;101126.72;;;33.23;37.57
22283;BME280;11310;51.528;21.204;2022-10-17T12:33:38;101115.22;;;31.43;40.47
22283;BME280;11310;51.528;21.204;2022-10-17T12:36:36;101110.69;;;30.81;37.63
22283;BME280;11310;51.528;21.204;2022-10-17T12:39:40;101120.16;;;30.85;36.28
22283;BME280;11310;51.528;21.204;2022-10-17T12:48:11;101101.59;;;31.51;40.34
22283;BME280;11310;51.528;21.204;2022-10-17T12:50:59;101119.66;;;32.56;36.14
22283;BME280;11310;51.528;21.204;2022-10-17T12:53:56;101114.16;;;32.93;37.24
22283;BME280;11310;51.528;21.204;2022-10-17T12:56:35;101111.34;;;33.30;36.32
22283;BME280;11310;51.528;21.204;2022-10-17T12:59:10;101115.94;;;33.65;36.64
22283;BME280;11310;51.528;21.204;2022-10-17T13:01:43;101124.03;;;33.94;36.41
22283;BME280;11310;51.528;21.204;2022-10-17T13:04:15;101117.41;;;33.82;36.13
22283;BME280;11310;51.528;21.204;2022-10-17T13:06:47;101127.47;;;33.17;37.42
22283;BME280;11310;51.528;21.204;2022-10-17T13:09:19;101124.88;;;33.09;34.80
22283;BME280;11310;51.528;21.204;2022-10-17T13:11:48;101114.63;;;33.26;37.98
22283;BME280;11310;51.528;21.204;2022-10-17T13:14:20;101112.56;;;33.63;37.08
22283;BME280;11310;51.528;21.204;2022-10-17T13:16:52;101115.00;;;33.08;38.48
22283;BME280;11310;51.528;21.204;2022-10-17T13:19:24;101116.13;;;32.33;39.22
22283;BME280;11310;51.528;21.204;2022-10-17T13:21:55;101120.81;;;32.39;38.98